sensor_id;sensor_type;location;lat;lon;timestamp;P1;durP1;ratioP1;P2;durP2;ratioP2
6255;SDS011;3161;48.794;9.784;2023-04-25T00:02:18;6.27;;;4.00;;
6255;SDS011;3161;48.794;9.784;2023-04-25T00:04:46;6.80;;;4.20;;
6255;SDS011;3161;48.794;9.784;2023-04-25T00:07:14;8.17;;;3.77;;
6255;SDS011;3161;48.794;9.784;2023-04-25T00:09:42;5.63;;;4.50;;
6255;SDS011;3161;48.794;9.784;2023-04-25T00:12:11;5.00;;;4.17;;
6255;SDS011;3161;48.794;9.784;2023-04-25T00:14:39;7.13;;;3.93;;
6255;SDS011;3161;48.794;9.784;2023-04-25T00:17:06;4.23;;;3.77;;
6255;SDS011;3161;48.794;9.784;2023-04-25T00:19:34;5.60;;;4.37;;
6255;SDS011;3161;48.794;9.784;2023-04-25T00:22:03;9.07;;;6.50;;
6255;SDS011;3161;48.794;9.784;2023-04-25T00:24:31;9.90;;;7.23;;
6255;SDS011;3161;48.794;9.784;2023-04-25T00:26:58;11.93;;;7.60;;
6255;SDS011;3161;48.794;9.784;2023-04-25T00:29:26;13.70;;;9.27;;
6255;SDS011;3161;48.794;9.784;2023-04-25T00:31:54;11.70;;;6.50;;
6255;SDS011;3161;48.794;9.784;2023-04-25T00:34:21;13.90;;;6.10;;
6255;SDS011;3161;48.794;9.784;2023-04-25T00:36:49;5.53;;;4.00;;
6255;SDS011;3161;48.794;9.784;2023-04-25T00:39:16;3.20;;;2.30;;
6255;SDS011;3161;48.794;9.784;2023-04-25T00:41:44;1.83;;;1.40;;
6255;SDS011;3161;48.794;9.784;2023-04-25T00:44:12;2.30;;;1.47;;
6255;SDS011;3161;48.794;9.784;2023-04-25T00:46:42;8.70;;;1.60;;
6255;SDS011;3161;48.794;9.784;2023-04-25T00:49:11;4.37;;;1.40;;
6255;SDS011;3161;48.794;9.784;2023-04-25T00:51:40;1.60;;;1.50;;
6255;SDS011;3161;48.794;9.784;2023-04-25T00:54:07;4.67;;;2.30;;
6255;SDS011;3161;48.794;9.784;2023-04-25T00:56:35;10.67;;;3.93;;
6255;SDS011;3161;48.794;9.784;2023-04-25T00:59:03;14.80;;;6.97;;
6255;SDS011;3161;48.794;9.784;2023-04-25T01:01:30;12.37;;;5.90;;
6255;SDS011;3161;48.794;9.784;2023-04-25T01:03:58;7.53;;;3.90;;
6255;SDS011;3161;48.794;9.784;2023-04-25T01:06:27;2.10;;;1.90;;
6255;SDS011;3161;48.794;9.784;2023-04-25T01:08:55;4.00;;;1.50;;
6255;SDS011;3161;48.794;9.784;2023-04-25T01:11:24;7.10;;;3.77;;
6255;SDS011;3161;48.794;9.784;2023-04-25T01:13:51;5.23;;;3.67;;
6255;SDS011;3161;48.794;9.784;2023-04-25T01:16:19;5.60;;;4.23;;
6255;SDS011;3161;48.794;9.784;2023-04-25T01:18:48;8.13;;;4.77;;
6255;SDS011;3161;48.794;9.784;2023-04-25T01:21:17;10.20;;;5.63;;
6255;SDS011;3161;48.794;9.784;2023-04-25T01:23:44;5.77;;;4.37;;
6255;SDS011;3161;48.794;9.784;2023-04-25T01:26:12;7.10;;;4.50;;
6255;SDS011;3161;48.794;9.784;2023-04-25T01:28:40;9.20;;;5.43;;
6255;SDS011;3161;48.794;9.784;2023-04-25T01:31:08;10.47;;;5.83;;
6255;SDS011;3161;48.794;9.784;2023-04-25T01:33:37;6.93;;;4.40;;
6255;SDS011;3161;48.794;9.784;2023-04-25T01:36:05;3.43;;;2.47;;
6255;SDS011;3161;48.794;9.784;2023-04-25T01:38:33;10.87;;;3.00;;
6255;SDS011;3161;48.794;9.784;2023-04-25T01:41:00;3.77;;;2.23;;
6255;SDS011;3161;48.794;9.784;2023-04-25T01:43:28;2.87;;;2.07;;
6255;SDS011;3161;48.794;9.784;2023-04-25T01:45:56;5.97;;;1.70;;
6255;SDS011;3161;48.794;9.784;2023-04-25T01:48:25;5.30;;;2.20;;
6255;SDS011;3161;48.794;9.784;2023-04-25T01:50:52;2.43;;;1.87;;
6255;SDS011;3161;48.794;9.784;2023-04-25T01:53:20;7.33;;;1.60;;
6255;SDS011;3161;48.794;9.784;2023-04-25T01:55:48;2.93;;;1.47;;
6255;SDS011;3161;48.794;9.784;2023-04-25T01:58:15;1.70;;;1.60;;
6255;SDS011;3161;48.794;9.784;2023-04-25T02:00:43;1.63;;;1.53;;
6255;SDS011;3161;48.794;9.784;2023-04-25T02:03:11;2.07;;;1.53;;
6255;SDS011;3161;48.794;9.784;2023-04-25T02:05:39;2.80;;;1.50;;
6255;SDS011;3161;48.794;9.784;2023-04-25T02:08:07;2.60;;;1.80;;
6255;SDS011;3161;48.794;9.784;2023-04-25T02:10:36;2.90;;;1.50;;
6255;SDS011;3161;48.794;9.784;2023-04-25T02:13:03;2.10;;;1.63;;
6255;SDS011;3161;48.794;9.784;2023-04-25T02:15:31;2.37;;;1.30;;
6255;SDS011;3161;48.794;9.784;2023-04-25T02:17:59;1.60;;;1.50;;
6255;SDS011;3161;48.794;9.784;2023-04-25T02:20:28;3.30;;;1.30;;
6255;SDS011;3161;48.794;9.784;2023-04-25T02:22:57;3.90;;;1.77;;
6255;SDS011;3161;48.794;9.784;2023-04-25T02:25:24;1.60;;;1.50;;
6255;SDS011;3161;48.794;9.784;2023-04-25T02:27:52;1.00;;;1.00;;
6255;SDS011;3161;48.794;9.784;2023-04-25T02:30:20;1.70;;;1.57;;
6255;SDS011;3161;48.794;9.784;2023-04-25T02:32:48;3.10;;;1.60;;
6255;SDS011;3161;48.794;9.784;2023-04-25T02:35:15;4.07;;;2.23;;
6255;SDS011;3161;48.794;9.784;2023-04-25T02:37:43;8.03;;;2.00;;
6255;SDS011;3161;48.794;9.784;2023-04-25T02:40:10;3.47;;;1.80;;
6255;SDS011;3161;48.794;9.784;2023-04-25T02:42:38;1.70;;;1.20;;
6255;SDS011;3161;48.794;9.784;2023-04-25T02:45:06;2.07;;;1.43;;
6255;SDS011;3161;48.794;9.784;2023-04-25T02:47:34;2.83;;;1.37;;
6255;SDS011;3161;48.794;9.784;2023-04-25T02:50:02;1.90;;;1.80;;
6255;SDS011;3161;48.794;9.784;2023-04-25T02:52:29;1.53;;;1.43;;
6255;SDS011;3161;48.794;9.784;2023-04-25T02:54:57;1.83;;;1.50;;
6255;SDS011;3161;48.794;9.784;2023-04-25T02:57:25;1.90;;;1.40;;
6255;SDS011;3161;48.794;9.784;2023-04-25T02:59:52;1.90;;;1.40;;
6255;SDS011;3161;48.794;9.784;2023-04-25T03:02:20;2.23;;;1.73;;
6255;SDS011;3161;48.794;9.784;2023-04-25T03:04:47;4.10;;;2.00;;
6255;SDS011;3161;48.794;9.784;2023-04-25T03:07:15;1.70;;;1.60;;
6255;SDS011;3161;48.794;9.784;2023-04-25T03:09:42;3.60;;;2.13;;
6255;SDS011;3161;48.794;9.784;2023-04-25T03:12:10;5.30;;;1.77;;
6255;SDS011;3161;48.794;9.784;2023-04-25T03:14:37;6.37;;;2.23;;
6255;SDS011;3161;48.794;9.784;2023-04-25T03:17:05;2.97;;;1.90;;
6255;SDS011;3161;48.794;9.784;2023-04-25T03:19:32;5.17;;;1.90;;
6255;SDS011;3161;48.794;9.784;2023-04-25T03:22:00;3.33;;;1.90;;
6255;SDS011;3161;48.794;9.784;2023-04-25T03:24:27;4.03;;;2.37;;
6255;SDS011;3161;48.794;9.784;2023-04-25T03:26:55;7.13;;;2.10;;
6255;SDS011;3161;48.794;9.784;2023-04-25T03:29:22;3.23;;;2.30;;
6255;SDS011;3161;48.794;9.784;2023-04-25T03:31:51;2.60;;;1.83;;
6255;SDS011;3161;48.794;9.784;2023-04-25T03:34:19;2.77;;;1.97;;
6255;SDS011;3161;48.794;9.784;2023-04-25T03:36:48;1.90;;;1.73;;
6255;SDS011;3161;48.794;9.784;2023-04-25T03:39:16;7.37;;;2.23;;
6255;SDS011;3161;48.794;9.784;2023-04-25T03:41:43;4.53;;;2.50;;
6255;SDS011;3161;48.794;9.784;2023-04-25T03:44:11;4.50;;;2.07;;
6255;SDS011;3161;48.794;9.784;2023-04-25T03:46:38;3.57;;;2.23;;
6255;SDS011;3161;48.794;9.784;2023-04-25T03:49:06;1.90;;;1.80;;
6255;SDS011;3161;48.794;9.784;2023-04-25T03:51:33;1.80;;;1.70;;
6255;SDS011;3161;48.794;9.784;2023-04-25T03:54:01;1.90;;;1.80;;
6255;SDS011;3161;48.794;9.784;2023-04-25T03:56:35;4.17;;;3.03;;
6255;SDS011;3161;48.794;9.784;2023-04-25T03:59:03;4.00;;;2.40;;
6255;SDS011;3161;48.794;9.784;2023-04-25T04:01:30;2.70;;;2.40;;
6255;SDS011;3161;48.794;9.784;2023-04-25T04:03:58;4.63;;;2.03;;
6255;SDS011;3161;48.794;9.784;2023-04-25T04:06:25;3.17;;;2.37;;
6255;SDS011;3161;48.794;9.784;2023-04-25T04:08:54;5.27;;;2.40;;
6255;SDS011;3161;48.794;9.784;2023-04-25T04:11:22;9.63;;;2.13;;
6255;SDS011;3161;48.794;9.784;2023-04-25T04:13:49;2.27;;;2.17;;
6255;SDS011;3161;48.794;9.784;2023-04-25T04:16:17;4.20;;;2.47;;
6255;SDS011;3161;48.794;9.784;2023-04-25T04:18:45;3.97;;;1.83;;
6255;SDS011;3161;48.794;9.784;2023-04-25T04:21:13;3.03;;;2.67;;
6255;SDS011;3161;48.794;9.784;2023-04-25T04:23:40;4.43;;;3.77;;
6255;SDS011;3161;48.794;9.784;2023-04-25T04:26:08;5.93;;;5.13;;
6255;SDS011;3161;48.794;9.784;2023-04-25T04:28:37;13.70;;;5.20;;
6255;SDS011;3161;48.794;9.784;2023-04-25T04:31:04;7.23;;;5.40;;
6255;SDS011;3161;48.794;9.784;2023-04-25T04:33:36;7.30;;;4.97;;
6255;SDS011;3161;48.794;9.784;2023-04-25T04:36:04;4.83;;;3.23;;
6255;SDS011;3161;48.794;9.784;2023-04-25T04:38:33;3.23;;;2.73;;
6255;SDS011;3161;48.794;9.784;2023-04-25T04:41:02;3.13;;;2.80;;
6255;SDS011;3161;48.794;9.784;2023-04-25T04:43:29;3.30;;;2.10;;
6255;SDS011;3161;48.794;9.784;2023-04-25T04:46:00;3.27;;;2.57;;
6255;SDS011;3161;48.794;9.784;2023-04-25T04:48:29;5.00;;;2.97;;
6255;SDS011;3161;48.794;9.784;2023-04-25T04:51:01;4.67;;;2.83;;
6255;SDS011;3161;48.794;9.784;2023-04-25T04:53:28;3.10;;;2.40;;
6255;SDS011;3161;48.794;9.784;2023-04-25T04:55:56;5.10;;;2.60;;
6255;SDS011;3161;48.794;9.784;2023-04-25T04:58:23;2.90;;;2.70;;
6255;SDS011;3161;48.794;9.784;2023-04-25T05:00:51;2.90;;;2.17;;
6255;SDS011;3161;48.794;9.784;2023-04-25T05:03:18;6.30;;;2.43;;
6255;SDS011;3161;48.794;9.784;2023-04-25T05:05:46;2.63;;;2.20;;
6255;SDS011;3161;48.794;9.784;2023-04-25T05:08:13;2.60;;;2.40;;
6255;SDS011;3161;48.794;9.784;2023-04-25T05:10:41;4.37;;;2.70;;
6255;SDS011;3161;48.794;9.784;2023-04-25T05:13:08;4.40;;;2.53;;
6255;SDS011;3161;48.794;9.784;2023-04-25T05:15:36;3.53;;;2.30;;
6255;SDS011;3161;48.794;9.784;2023-04-25T05:18:03;6.70;;;2.30;;
6255;SDS011;3161;48.794;9.784;2023-04-25T05:20:31;2.50;;;2.10;;
6255;SDS011;3161;48.794;9.784;2023-04-25T05:22:58;6.10;;;2.33;;
6255;SDS011;3161;48.794;9.784;2023-04-25T05:25:26;3.13;;;2.30;;
6255;SDS011;3161;48.794;9.784;2023-04-25T05:27:54;2.10;;;2.00;;
6255;SDS011;3161;48.794;9.784;2023-04-25T05:30:22;2.73;;;2.30;;
6255;SDS011;3161;48.794;9.784;2023-04-25T05:32:50;5.03;;;2.23;;
6255;SDS011;3161;48.794;9.784;2023-04-25T05:35:17;3.30;;;2.00;;
6255;SDS011;3161;48.794;9.784;2023-04-25T05:37:45;4.87;;;2.60;;
6255;SDS011;3161;48.794;9.784;2023-04-25T05:40:12;11.63;;;2.80;;
6255;SDS011;3161;48.794;9.784;2023-04-25T05:42:40;3.77;;;2.13;;
6255;SDS011;3161;48.794;9.784;2023-04-25T05:45:07;4.07;;;2.30;;
6255;SDS011;3161;48.794;9.784;2023-04-25T05:47:35;7.27;;;2.43;;
6255;SDS011;3161;48.794;9.784;2023-04-25T05:50:03;2.73;;;2.23;;
6255;SDS011;3161;48.794;9.784;2023-04-25T05:52:31;4.77;;;2.27;;
6255;SDS011;3161;48.794;9.784;2023-04-25T05:54:59;3.17;;;2.50;;
6255;SDS011;3161;48.794;9.784;2023-04-25T05:57:27;3.50;;;1.83;;
6255;SDS011;3161;48.794;9.784;2023-04-25T05:59:54;3.00;;;2.17;;
6255;SDS011;3161;48.794;9.784;2023-04-25T06:02:22;7.47;;;2.50;;
6255;SDS011;3161;48.794;9.784;2023-04-25T06:04:49;10.03;;;5.53;;
6255;SDS011;3161;48.794;9.784;2023-04-25T06:07:18;16.83;;;9.27;;
6255;SDS011;3161;48.794;9.784;2023-04-25T06:09:46;19.73;;;10.50;;
6255;SDS011;3161;48.794;9.784;2023-04-25T06:12:13;3.60;;;2.90;;
6255;SDS011;3161;48.794;9.784;2023-04-25T06:14:41;3.50;;;2.17;;
6255;SDS011;3161;48.794;9.784;2023-04-25T06:17:08;2.60;;;2.13;;
6255;SDS011;3161;48.794;9.784;2023-04-25T06:19:36;2.00;;;1.67;;
6255;SDS011;3161;48.794;9.784;2023-04-25T06:22:03;4.07;;;2.27;;
6255;SDS011;3161;48.794;9.784;2023-04-25T06:24:33;2.10;;;1.90;;
6255;SDS011;3161;48.794;9.784;2023-04-25T06:27:01;2.37;;;1.60;;
6255;SDS011;3161;48.794;9.784;2023-04-25T06:29:28;8.37;;;2.40;;
6255;SDS011;3161;48.794;9.784;2023-04-25T06:32:12;3.53;;;1.80;;
6255;SDS011;3161;48.794;9.784;2023-04-25T06:34:40;3.30;;;1.67;;
6255;SDS011;3161;48.794;9.784;2023-04-25T06:37:08;3.13;;;2.00;;
6255;SDS011;3161;48.794;9.784;2023-04-25T06:39:35;4.47;;;2.10;;
6255;SDS011;3161;48.794;9.784;2023-04-25T06:42:03;2.93;;;2.10;;
6255;SDS011;3161;48.794;9.784;2023-04-25T06:44:30;1.90;;;1.80;;
6255;SDS011;3161;48.794;9.784;2023-04-25T06:46:58;5.33;;;2.10;;
6255;SDS011;3161;48.794;9.784;2023-04-25T06:49:25;5.50;;;2.10;;
6255;SDS011;3161;48.794;9.784;2023-04-25T06:51:53;1.97;;;1.73;;
6255;SDS011;3161;48.794;9.784;2023-04-25T06:54:20;6.60;;;1.73;;
6255;SDS011;3161;48.794;9.784;2023-04-25T06:56:48;2.07;;;1.83;;
6255;SDS011;3161;48.794;9.784;2023-04-25T06:59:15;3.33;;;1.63;;
6255;SDS011;3161;48.794;9.784;2023-04-25T07:01:43;3.33;;;1.90;;
6255;SDS011;3161;48.794;9.784;2023-04-25T07:04:11;2.67;;;2.27;;
6255;SDS011;3161;48.794;9.784;2023-04-25T07:06:38;2.40;;;1.80;;
6255;SDS011;3161;48.794;9.784;2023-04-25T07:09:08;3.40;;;1.77;;
6255;SDS011;3161;48.794;9.784;2023-04-25T07:11:36;3.27;;;1.87;;
6255;SDS011;3161;48.794;9.784;2023-04-25T07:14:03;2.53;;;1.80;;
6255;SDS011;3161;48.794;9.784;2023-04-25T07:16:31;3.33;;;1.70;;
6255;SDS011;3161;48.794;9.784;2023-04-25T07:18:59;3.23;;;1.57;;
6255;SDS011;3161;48.794;9.784;2023-04-25T07:21:26;1.70;;;1.60;;
6255;SDS011;3161;48.794;9.784;2023-04-25T07:23:53;1.83;;;1.73;;
6255;SDS011;3161;48.794;9.784;2023-04-25T07:26:21;2.43;;;1.67;;
6255;SDS011;3161;48.794;9.784;2023-04-25T07:28:49;3.20;;;1.73;;
6255;SDS011;3161;48.794;9.784;2023-04-25T07:31:17;1.80;;;1.70;;
6255;SDS011;3161;48.794;9.784;2023-04-25T07:33:44;3.20;;;2.07;;
6255;SDS011;3161;48.794;9.784;2023-04-25T07:36:12;1.67;;;1.57;;
6255;SDS011;3161;48.794;9.784;2023-04-25T07:38:41;1.97;;;1.47;;
6255;SDS011;3161;48.794;9.784;2023-04-25T07:41:09;1.90;;;1.43;;
6255;SDS011;3161;48.794;9.784;2023-04-25T07:43:36;1.97;;;1.87;;
6255;SDS011;3161;48.794;9.784;2023-04-25T07:46:04;3.70;;;1.53;;
6255;SDS011;3161;48.794;9.784;2023-04-25T07:48:32;2.00;;;1.60;;
6255;SDS011;3161;48.794;9.784;2023-04-25T07:50:59;1.73;;;1.30;;
6255;SDS011;3161;48.794;9.784;2023-04-25T07:53:27;2.67;;;1.80;;
6255;SDS011;3161;48.794;9.784;2023-04-25T07:55:54;2.50;;;1.50;;
6255;SDS011;3161;48.794;9.784;2023-04-25T07:58:22;2.87;;;1.60;;
6255;SDS011;3161;48.794;9.784;2023-04-25T08:00:49;6.70;;;1.70;;
6255;SDS011;3161;48.794;9.784;2023-04-25T08:03:17;1.80;;;1.63;;
6255;SDS011;3161;48.794;9.784;2023-04-25T08:05:45;1.70;;;1.60;;
6255;SDS011;3161;48.794;9.784;2023-04-25T08:08:13;1.63;;;1.53;;
6255;SDS011;3161;48.794;9.784;2023-04-25T08:10:40;2.60;;;1.50;;
6255;SDS011;3161;48.794;9.784;2023-04-25T08:13:08;1.83;;;1.20;;
6255;SDS011;3161;48.794;9.784;2023-04-25T08:15:35;2.30;;;1.47;;
6255;SDS011;3161;48.794;9.784;2023-04-25T08:18:03;0.93;;;0.93;;
6255;SDS011;3161;48.794;9.784;2023-04-25T08:20:31;0.90;;;0.90;;
6255;SDS011;3161;48.794;9.784;2023-04-25T08:22:58;1.27;;;1.27;;
6255;SDS011;3161;48.794;9.784;2023-04-25T08:25:26;1.30;;;1.20;;
6255;SDS011;3161;48.794;9.784;2023-04-25T08:27:54;1.50;;;1.40;;
6255;SDS011;3161;48.794;9.784;2023-04-25T08:30:22;1.03;;;0.90;;
6255;SDS011;3161;48.794;9.784;2023-04-25T08:32:50;1.27;;;0.80;;
6255;SDS011;3161;48.794;9.784;2023-04-25T08:35:17;1.00;;;0.90;;
6255;SDS011;3161;48.794;9.784;2023-04-25T08:37:46;4.77;;;1.03;;
6255;SDS011;3161;48.794;9.784;2023-04-25T08:40:15;1.17;;;1.10;;
6255;SDS011;3161;48.794;9.784;2023-04-25T08:42:42;3.50;;;1.10;;
6255;SDS011;3161;48.794;9.784;2023-04-25T08:45:10;1.03;;;1.00;;
6255;SDS011;3161;48.794;9.784;2023-04-25T08:47:38;2.20;;;1.00;;
6255;SDS011;3161;48.794;9.784;2023-04-25T08:50:07;0.90;;;0.90;;
6255;SDS011;3161;48.794;9.784;2023-04-25T08:52:39;0.83;;;0.83;;
6255;SDS011;3161;48.794;9.784;2023-04-25T08:55:08;1.33;;;1.00;;
6255;SDS011;3161;48.794;9.784;2023-04-25T08:57:38;1.30;;;1.20;;
6255;SDS011;3161;48.794;9.784;2023-04-25T09:00:11;1.03;;;0.97;;
6255;SDS011;3161;48.794;9.784;2023-04-25T09:02:40;0.90;;;0.90;;
6255;SDS011;3161;48.794;9.784;2023-04-25T09:05:09;1.43;;;1.33;;
6255;SDS011;3161;48.794;9.784;2023-04-25T09:07:38;0.80;;;0.80;;
6255;SDS011;3161;48.794;9.784;2023-04-25T09:10:06;2.50;;;1.00;;
6255;SDS011;3161;48.794;9.784;2023-04-25T09:12:34;3.70;;;1.00;;
6255;SDS011;3161;48.794;9.784;2023-04-25T09:15:04;1.30;;;1.20;;
6255;SDS011;3161;48.794;9.784;2023-04-25T09:17:33;1.87;;;1.00;;
6255;SDS011;3161;48.794;9.784;2023-04-25T09:20:07;1.90;;;1.40;;
6255;SDS011;3161;48.794;9.784;2023-04-25T09:22:39;1.20;;;1.10;;
6255;SDS011;3161;48.794;9.784;2023-04-25T09:25:09;1.20;;;1.20;;
6255;SDS011;3161;48.794;9.784;2023-04-25T09:27:48;1.40;;;1.30;;
6255;SDS011;3161;48.794;9.784;2023-04-25T09:30:28;1.83;;;1.50;;
6255;SDS011;3161;48.794;9.784;2023-04-25T09:33:10;1.60;;;1.50;;
6255;SDS011;3161;48.794;9.784;2023-04-25T09:35:38;2.83;;;1.33;;
6255;SDS011;3161;48.794;9.784;2023-04-25T09:38:10;1.70;;;1.60;;
6255;SDS011;3161;48.794;9.784;2023-04-25T09:40:40;3.10;;;1.93;;
6255;SDS011;3161;48.794;9.784;2023-04-25T09:43:23;2.03;;;1.87;;
6255;SDS011;3161;48.794;9.784;2023-04-25T09:45:53;3.17;;;1.93;;
6255;SDS011;3161;48.794;9.784;2023-04-25T09:48:24;3.03;;;1.97;;
6255;SDS011;3161;48.794;9.784;2023-04-25T09:51:12;1.83;;;1.73;;
6255;SDS011;3161;48.794;9.784;2023-04-25T09:53:41;1.90;;;1.80;;
6255;SDS011;3161;48.794;9.784;2023-04-25T09:56:11;2.40;;;2.20;;
6255;SDS011;3161;48.794;9.784;2023-04-25T09:58:39;3.90;;;2.27;;
6255;SDS011;3161;48.794;9.784;2023-04-25T10:01:08;6.77;;;6.10;;
6255;SDS011;3161;48.794;9.784;2023-04-25T10:03:38;2.97;;;2.60;;
6255;SDS011;3161;48.794;9.784;2023-04-25T10:06:08;2.83;;;2.40;;
6255;SDS011;3161;48.794;9.784;2023-04-25T10:08:37;5.87;;;2.77;;
6255;SDS011;3161;48.794;9.784;2023-04-25T10:11:06;1.83;;;1.73;;
6255;SDS011;3161;48.794;9.784;2023-04-25T10:13:35;1.70;;;1.60;;
6255;SDS011;3161;48.794;9.784;2023-04-25T10:16:03;2.87;;;2.27;;
6255;SDS011;3161;48.794;9.784;2023-04-25T10:18:32;1.90;;;1.80;;
6255;SDS011;3161;48.794;9.784;2023-04-25T10:21:00;1.27;;;1.23;;
6255;SDS011;3161;48.794;9.784;2023-04-25T10:23:30;1.80;;;1.70;;
6255;SDS011;3161;48.794;9.784;2023-04-25T10:26:00;2.63;;;2.40;;
6255;SDS011;3161;48.794;9.784;2023-04-25T10:28:28;1.60;;;1.50;;
6255;SDS011;3161;48.794;9.784;2023-04-25T10:30:59;1.93;;;1.83;;
6255;SDS011;3161;48.794;9.784;2023-04-25T10:36:10;2.23;;;1.67;;
6255;SDS011;3161;48.794;9.784;2023-04-25T10:38:39;1.47;;;1.10;;
6255;SDS011;3161;48.794;9.784;2023-04-25T10:41:09;1.27;;;1.03;;
6255;SDS011;3161;48.794;9.784;2023-04-25T10:43:39;1.80;;;1.50;;
6255;SDS011;3161;48.794;9.784;2023-04-25T10:46:26;1.70;;;1.30;;
6255;SDS011;3161;48.794;9.784;2023-04-25T10:49:00;1.70;;;1.43;;
6255;SDS011;3161;48.794;9.784;2023-04-25T10:51:29;5.47;;;1.33;;
6255;SDS011;3161;48.794;9.784;2023-04-25T10:53:59;1.97;;;1.87;;
6255;SDS011;3161;48.794;9.784;2023-04-25T10:56:29;4.43;;;2.60;;
6255;SDS011;3161;48.794;9.784;2023-04-25T10:59:06;4.50;;;2.17;;
6255;SDS011;3161;48.794;9.784;2023-04-25T11:01:45;1.93;;;1.83;;
6255;SDS011;3161;48.794;9.784;2023-04-25T11:09:39;4.33;;;2.40;;
6255;SDS011;3161;48.794;9.784;2023-04-25T11:12:07;9.20;;;2.87;;
6255;SDS011;3161;48.794;9.784;2023-04-25T11:14:37;3.50;;;2.60;;
6255;SDS011;3161;48.794;9.784;2023-04-25T11:17:05;2.80;;;2.33;;
6255;SDS011;3161;48.794;9.784;2023-04-25T11:19:33;2.20;;;1.90;;
6255;SDS011;3161;48.794;9.784;2023-04-25T11:22:01;2.83;;;2.07;;
6255;SDS011;3161;48.794;9.784;2023-04-25T11:24:30;4.27;;;2.07;;
6255;SDS011;3161;48.794;9.784;2023-04-25T11:27:02;3.03;;;2.23;;
6255;SDS011;3161;48.794;9.784;2023-04-25T11:29:30;2.67;;;2.33;;
6255;SDS011;3161;48.794;9.784;2023-04-25T11:31:59;2.63;;;2.40;;
6255;SDS011;3161;48.794;9.784;2023-04-25T11:34:28;2.53;;;2.33;;
6255;SDS011;3161;48.794;9.784;2023-04-25T11:36:59;3.30;;;2.63;;
6255;SDS011;3161;48.794;9.784;2023-04-25T11:39:28;3.50;;;2.43;;
6255;SDS011;3161;48.794;9.784;2023-04-25T11:41:56;3.53;;;2.27;;
6255;SDS011;3161;48.794;9.784;2023-04-25T11:44:23;9.40;;;2.40;;
6255;SDS011;3161;48.794;9.784;2023-04-25T11:46:52;3.40;;;2.57;;
6255;SDS011;3161;48.794;9.784;2023-04-25T11:49:19;4.17;;;2.30;;
6255;SDS011;3161;48.794;9.784;2023-04-25T11:51:47;2.67;;;2.47;;
6255;SDS011;3161;48.794;9.784;2023-04-25T11:54:15;2.33;;;2.03;;
6255;SDS011;3161;48.794;9.784;2023-04-25T11:56:43;3.40;;;2.77;;
6255;SDS011;3161;48.794;9.784;2023-04-25T11:59:12;2.90;;;2.70;;
6255;SDS011;3161;48.794;9.784;2023-04-25T12:01:41;10.37;;;6.27;;
6255;SDS011;3161;48.794;9.784;2023-04-25T12:04:24;3.60;;;2.87;;
6255;SDS011;3161;48.794;9.784;2023-04-25T12:06:53;3.13;;;2.37;;
6255;SDS011;3161;48.794;9.784;2023-04-25T12:09:28;2.83;;;2.33;;
6255;SDS011;3161;48.794;9.784;2023-04-25T12:11:58;2.67;;;2.47;;
6255;SDS011;3161;48.794;9.784;2023-04-25T12:14:32;6.27;;;3.07;;
6255;SDS011;3161;48.794;9.784;2023-04-25T12:17:02;3.50;;;2.87;;
6255;SDS011;3161;48.794;9.784;2023-04-25T12:19:35;3.10;;;2.77;;
6255;SDS011;3161;48.794;9.784;2023-04-25T12:22:24;7.17;;;4.20;;
6255;SDS011;3161;48.794;9.784;2023-04-25T12:24:52;5.93;;;2.93;;
6255;SDS011;3161;48.794;9.784;2023-04-25T12:27:19;3.20;;;2.70;;
6255;SDS011;3161;48.794;9.784;2023-04-25T12:29:53;3.80;;;3.57;;
6255;SDS011;3161;48.794;9.784;2023-04-25T12:32:22;3.43;;;2.90;;
6255;SDS011;3161;48.794;9.784;2023-04-25T12:34:50;3.23;;;2.93;;
6255;SDS011;3161;48.794;9.784;2023-04-25T12:37:18;2.90;;;2.67;;
6255;SDS011;3161;48.794;9.784;2023-04-25T12:39:46;2.47;;;2.27;;
6255;SDS011;3161;48.794;9.784;2023-04-25T12:42:13;4.87;;;2.90;;
6255;SDS011;3161;48.794;9.784;2023-04-25T12:44:41;3.73;;;2.23;;
6255;SDS011;3161;48.794;9.784;2023-04-25T12:47:08;3.30;;;2.43;;
6255;SDS011;3161;48.794;9.784;2023-04-25T12:49:36;2.33;;;1.97;;
6255;SDS011;3161;48.794;9.784;2023-04-25T12:52:03;2.97;;;2.40;;
6255;SDS011;3161;48.794;9.784;2023-04-25T12:54:31;5.40;;;3.00;;
6255;SDS011;3161;48.794;9.784;2023-04-25T12:56:58;3.30;;;2.40;;
6255;SDS011;3161;48.794;9.784;2023-04-25T12:59:28;2.20;;;2.10;;
6255;SDS011;3161;48.794;9.784;2023-04-25T13:01:55;5.73;;;2.97;;
6255;SDS011;3161;48.794;9.784;2023-04-25T13:04:23;2.70;;;2.50;;
6255;SDS011;3161;48.794;9.784;2023-04-25T13:06:50;2.17;;;2.07;;
6255;SDS011;3161;48.794;9.784;2023-04-25T13:09:18;2.87;;;2.23;;
6255;SDS011;3161;48.794;9.784;2023-04-25T13:11:54;5.13;;;2.63;;
6255;SDS011;3161;48.794;9.784;2023-04-25T13:14:21;2.77;;;2.10;;
6255;SDS011;3161;48.794;9.784;2023-04-25T13:16:49;8.63;;;2.50;;
6255;SDS011;3161;48.794;9.784;2023-04-25T13:19:16;2.50;;;2.10;;
6255;SDS011;3161;48.794;9.784;2023-04-25T13:21:44;11.83;;;3.07;;
6255;SDS011;3161;48.794;9.784;2023-04-25T13:24:11;4.60;;;2.67;;
6255;SDS011;3161;48.794;9.784;2023-04-25T13:26:39;4.67;;;2.33;;
6255;SDS011;3161;48.794;9.784;2023-04-25T13:29:06;2.77;;;2.57;;
6255;SDS011;3161;48.794;9.784;2023-04-25T13:31:34;4.37;;;2.90;;
6255;SDS011;3161;48.794;9.784;2023-04-25T13:34:02;2.40;;;2.20;;
6255;SDS011;3161;48.794;9.784;2023-04-25T13:36:29;3.07;;;2.33;;
6255;SDS011;3161;48.794;9.784;2023-04-25T13:38:57;2.77;;;2.03;;
6255;SDS011;3161;48.794;9.784;2023-04-25T13:41:25;3.77;;;2.60;;
6255;SDS011;3161;48.794;9.784;2023-04-25T13:43:52;6.77;;;3.30;;
6255;SDS011;3161;48.794;9.784;2023-04-25T13:46:20;4.53;;;3.70;;
6255;SDS011;3161;48.794;9.784;2023-04-25T13:48:48;5.77;;;2.83;;
6255;SDS011;3161;48.794;9.784;2023-04-25T13:51:16;4.27;;;3.83;;
6255;SDS011;3161;48.794;9.784;2023-04-25T13:53:43;4.00;;;2.30;;
6255;SDS011;3161;48.794;9.784;2023-04-25T13:56:11;2.70;;;2.20;;
6255;SDS011;3161;48.794;9.784;2023-04-25T13:58:38;4.23;;;1.93;;
6255;SDS011;3161;48.794;9.784;2023-04-25T14:01:06;6.80;;;2.33;;
6255;SDS011;3161;48.794;9.784;2023-04-25T14:03:34;3.77;;;2.50;;
6255;SDS011;3161;48.794;9.784;2023-04-25T14:06:01;2.57;;;2.37;;
6255;SDS011;3161;48.794;9.784;2023-04-25T14:08:30;2.53;;;2.33;;
6255;SDS011;3161;48.794;9.784;2023-04-25T14:10:57;3.40;;;2.20;;
6255;SDS011;3161;48.794;9.784;2023-04-25T14:13:25;2.20;;;1.57;;
6255;SDS011;3161;48.794;9.784;2023-04-25T14:15:53;4.17;;;2.30;;
6255;SDS011;3161;48.794;9.784;2023-04-25T14:18:21;2.30;;;2.10;;
6255;SDS011;3161;48.794;9.784;2023-04-25T14:20:48;3.00;;;1.90;;
6255;SDS011;3161;48.794;9.784;2023-04-25T14:23:16;2.17;;;2.03;;
6255;SDS011;3161;48.794;9.784;2023-04-25T14:25:44;2.87;;;1.90;;
6255;SDS011;3161;48.794;9.784;2023-04-25T14:28:12;2.33;;;2.07;;
6255;SDS011;3161;48.794;9.784;2023-04-25T14:30:39;2.80;;;2.13;;
6255;SDS011;3161;48.794;9.784;2023-04-25T14:33:07;3.87;;;2.33;;
6255;SDS011;3161;48.794;9.784;2023-04-25T14:35:35;5.17;;;2.60;;
6255;SDS011;3161;48.794;9.784;2023-04-25T14:38:02;12.03;;;6.07;;
6255;SDS011;3161;48.794;9.784;2023-04-25T14:40:31;2.43;;;2.23;;
6255;SDS011;3161;48.794;9.784;2023-04-25T14:42:58;4.10;;;3.03;;
6255;SDS011;3161;48.794;9.784;2023-04-25T14:45:26;3.43;;;2.60;;
6255;SDS011;3161;48.794;9.784;2023-04-25T14:47:53;2.63;;;2.43;;
6255;SDS011;3161;48.794;9.784;2023-04-25T14:50:21;3.30;;;2.40;;
6255;SDS011;3161;48.794;9.784;2023-04-25T14:52:49;2.20;;;2.00;;
6255;SDS011;3161;48.794;9.784;2023-04-25T14:55:18;2.87;;;2.37;;
6255;SDS011;3161;48.794;9.784;2023-04-25T14:57:46;3.40;;;2.90;;
6255;SDS011;3161;48.794;9.784;2023-04-25T15:00:14;4.73;;;2.83;;
6255;SDS011;3161;48.794;9.784;2023-04-25T15:02:42;3.00;;;2.70;;
6255;SDS011;3161;48.794;9.784;2023-04-25T15:05:10;3.03;;;2.73;;
6255;SDS011;3161;48.794;9.784;2023-04-25T15:07:37;4.10;;;2.57;;
6255;SDS011;3161;48.794;9.784;2023-04-25T15:10:06;9.47;;;2.90;;
6255;SDS011;3161;48.794;9.784;2023-04-25T15:12:36;18.37;;;10.20;;
6255;SDS011;3161;48.794;9.784;2023-04-25T15:15:04;10.77;;;7.27;;
6255;SDS011;3161;48.794;9.784;2023-04-25T15:17:34;5.30;;;4.77;;
6255;SDS011;3161;48.794;9.784;2023-04-25T15:20:02;7.30;;;3.10;;
6255;SDS011;3161;48.794;9.784;2023-04-25T15:22:31;5.20;;;3.50;;
6255;SDS011;3161;48.794;9.784;2023-04-25T15:24:58;2.30;;;2.10;;
6255;SDS011;3161;48.794;9.784;2023-04-25T15:27:26;1.20;;;1.20;;
6255;SDS011;3161;48.794;9.784;2023-04-25T15:29:53;1.20;;;1.10;;
6255;SDS011;3161;48.794;9.784;2023-04-25T15:32:21;1.37;;;1.23;;